createdAt,value
2019-04-16T00:02:39.787Z,74.90
2019-04-16T00:05:32.187Z,74.61
2019-04-16T00:08:19.390Z,76.41
2019-04-16T00:11:10.371Z,75.13
2019-04-16T00:13:46.856Z,75.91
2019-04-16T00:16:17.297Z,75.86
2019-04-16T00:18:57.183Z,75.66
2019-04-16T00:21:53.818Z,75.50
2019-04-16T00:24:38.827Z,75.74
2019-04-16T00:27:09.289Z,75.00
2019-04-16T00:29:45.731Z,75.11
2019-04-16T00:32:30.276Z,75.54
2019-04-16T00:35:01.054Z,75.75
2019-04-16T00:37:31.772Z,76.34
2019-04-16T00:40:02.906Z,76.97
2019-04-16T00:42:33.551Z,76.88
2019-04-16T00:45:04.074Z,76.49
2019-04-16T00:47:34.620Z,76.74
2019-04-16T00:50:06.567Z,76.72
2019-04-16T00:52:39.938Z,76.85
2019-04-16T00:55:14.675Z,76.93
2019-04-16T00:57:48.374Z,77.42
2019-04-16T01:03:13.245Z,77.05
2019-04-16T01:05:43.713Z,77.33
2019-04-16T01:08:14.091Z,77.13
2019-04-16T01:10:44.584Z,77.50
2019-04-16T01:13:17.895Z,78.41
2019-04-16T01:15:48.407Z,78.63
2019-04-16T01:18:24.266Z,79.23
2019-04-16T01:20:54.667Z,79.52
2019-04-16T01:23:25.246Z,78.76
2019-04-16T01:25:58.328Z,78.78
2019-04-16T01:28:34.334Z,78.95
2019-04-16T01:31:14.935Z,78.66
2019-04-16T01:33:58.640Z,78.74
2019-04-16T01:36:46.735Z,78.04
2019-04-16T01:39:18.736Z,79.36
2019-04-16T01:41:50.337Z,80.04
2019-04-16T01:44:21.247Z,79.72
2019-04-16T01:46:51.690Z,80.00
2019-04-16T01:49:22.052Z,80.06
2019-04-16T01:51:52.513Z,80.72
2019-04-16T01:54:23.485Z,80.75
2019-04-16T01:56:54.215Z,80.96
2019-04-16T01:59:24.885Z,80.68
2019-04-16T02:01:55.440Z,80.64
2019-04-16T02:04:25.849Z,81.17
2019-04-16T02:06:57.317Z,81.87
2019-04-16T02:09:28.284Z,82.23
2019-04-16T02:11:58.816Z,81.49
2019-04-16T02:14:29.247Z,82.14
2019-04-16T02:16:59.841Z,82.91
2019-04-16T02:19:32.752Z,82.91
2019-04-16T02:22:02.563Z,82.45
2019-04-16T02:24:33.033Z,82.63
2019-04-16T02:27:03.536Z,82.14
2019-04-16T02:29:34.084Z,81.92
2019-04-16T02:32:04.854Z,81.41
2019-04-16T02:34:35.244Z,81.67
2019-04-16T02:37:05.708Z,81.61
2019-04-16T02:39:47.915Z,81.69
2019-04-16T02:42:08.374Z,81.55
2019-04-16T02:44:39.203Z,81.08
2019-04-16T02:47:10.518Z,81.29
2019-04-16T02:49:43.571Z,81.94
2019-04-16T02:52:31.270Z,82.86
2019-04-16T02:55:32.520Z,83.32
2019-04-16T02:58:05.516Z,83.83
2019-04-16T03:03:24.854Z,84.44
2019-04-16T03:06:00.918Z,84.42
2019-04-16T03:08:33.406Z,84.28
2019-04-16T03:11:03.985Z,84.79
2019-04-16T03:13:36.087Z,84.57
2019-04-16T03:16:25.556Z,85.00
2019-04-16T03:19:01.147Z,84.48
2019-04-16T03:21:31.566Z,84.46
2019-04-16T03:24:02.063Z,84.82
2019-04-16T03:26:32.323Z,85.35
2019-04-16T03:29:02.916Z,85.50
2019-04-16T03:31:33.198Z,85.55
2019-04-16T03:34:03.702Z,85.35
2019-04-16T03:36:34.264Z,85.82
2019-04-16T03:39:06.480Z,85.68
2019-04-16T03:41:36.936Z,86.49
2019-04-16T03:44:10.127Z,86.86
2019-04-16T03:46:46.882Z,85.98
2019-04-16T03:49:15.823Z,85.80
2019-04-16T03:51:46.283Z,85.44
2019-04-16T03:54:23.258Z,86.18
2019-04-16T03:56:53.748Z,86.06
2019-04-16T03:59:24.181Z,85.04
2019-04-16T04:01:54.549Z,85.58
2019-04-16T04:04:28.973Z,85.74
2019-04-16T04:06:57.234Z,86.95
2019-04-16T04:09:27.635Z,86.77
2019-04-16T04:11:58.257Z,86.22
2019-04-16T04:14:28.685Z,85.77
2019-04-16T04:16:58.961Z,87.32
2019-04-16T04:19:29.778Z,87.50
2019-04-16T04:22:00.132Z,87.42
2019-04-16T04:24:31.377Z,86.97
2019-04-16T04:27:02.677Z,86.42
2019-04-16T04:29:33.248Z,86.75
2019-04-16T04:32:04.301Z,86.27
2019-04-16T04:34:34.731Z,86.67
2019-04-16T04:37:05.218Z,86.10
2019-04-16T04:39:35.679Z,85.12
2019-04-16T04:42:06.176Z,86.79
2019-04-16T04:44:37.138Z,86.24
2019-04-16T04:47:07.950Z,86.04
2019-04-16T04:49:38.514Z,86.31
2019-04-16T04:52:13.633Z,85.96
2019-04-16T04:54:44.075Z,84.85
2019-04-16T04:57:14.470Z,85.18
2019-04-16T05:03:08.775Z,85.20
2019-04-16T05:05:55.793Z,85.19
2019-04-16T05:08:25.343Z,85.58
2019-04-16T05:11:02.634Z,85.29
2019-04-16T05:13:42.408Z,84.68
2019-04-16T05:16:12.735Z,84.48
2019-04-16T05:18:43.246Z,84.99
2019-04-16T05:21:17.811Z,84.60
2019-04-16T05:23:45.942Z,84.46
2019-04-16T05:26:16.505Z,84.35
2019-04-16T05:28:52.405Z,83.63
2019-04-16T05:31:26.961Z,83.58
2019-04-16T05:34:02.140Z,83.92
2019-04-16T05:36:29.576Z,81.92
2019-04-16T05:38:59.918Z,81.38
2019-04-16T05:41:30.311Z,81.86
2019-04-16T05:44:01.830Z,81.35
2019-04-16T05:46:38.411Z,81.10
2019-04-16T05:49:07.802Z,80.36
2019-04-16T05:51:38.241Z,80.31
2019-04-16T05:54:33.387Z,79.39
2019-04-16T05:57:03.935Z,79.49
2019-04-16T05:59:34.606Z,78.20
2019-04-16T06:02:09.425Z,76.77
2019-04-16T06:04:41.974Z,75.43
2019-04-16T06:07:15.504Z,74.26
2019-04-16T06:09:55.650Z,73.26
2019-04-16T06:12:32.645Z,72.66
2019-04-16T06:15:22.423Z,73.46
2019-04-16T06:18:26.710Z,71.28
2019-04-16T06:21:18.630Z,71.14
2019-04-16T06:24:03.354Z,69.77
2019-04-16T06:26:48.036Z,68.20
2019-04-16T06:29:40.064Z,68.57
2019-04-16T06:32:29.336Z,69.34
2019-04-16T06:35:20.756Z,69.12
2019-04-16T06:38:01.740Z,67.17
2019-04-16T06:40:38.886Z,65.73
2019-04-16T06:43:17.018Z,64.95
2019-04-16T06:51:33.719Z,61.02
2019-04-16T06:54:35.078Z,60.71
2019-04-16T06:57:22.637Z,59.37
2019-04-16T07:13:55.331Z,55.97
2019-04-16T07:16:28.895Z,55.51
2019-04-16T07:18:58.000Z,55.35
2019-04-16T07:21:33.940Z,55.97
2019-04-16T07:24:04.616Z,55.24
2019-04-16T07:26:38.173Z,54.57
2019-04-16T07:29:31.609Z,54.39
2019-04-16T07:32:10.999Z,53.35
2019-04-16T07:35:03.537Z,53.76
2019-04-16T07:37:45.831Z,54.03
2019-04-16T07:40:33.508Z,53.80
2019-04-16T07:43:21.263Z,53.40
2019-04-16T07:51:21.059Z,52.90
2019-04-16T07:54:14.915Z,51.69
2019-04-16T07:56:47.942Z,52.33
2019-04-16T07:59:19.348Z,52.53
2019-04-16T08:01:49.852Z,51.29
2019-04-16T08:04:28.521Z,51.88
2019-04-16T08:06:55.158Z,50.24
2019-04-16T08:09:28.653Z,50.35
2019-04-16T08:11:58.205Z,51.40
2019-04-16T08:14:28.699Z,50.35
2019-04-16T08:17:00.271Z,49.12
2019-04-16T08:40:56.969Z,48.93
2019-04-16T08:43:29.665Z,49.08
2019-04-16T08:45:59.915Z,48.25
2019-04-16T08:57:42.496Z,46.93
2019-04-16T09:19:10.642Z,46.29
2019-04-16T09:21:44.345Z,45.42
2019-04-16T09:24:30.925Z,45.01
2019-04-16T09:27:17.114Z,44.93
2019-04-16T10:01:28.417Z,43.41
2019-04-16T10:04:02.062Z,43.97
2019-04-16T10:06:32.760Z,43.17
2019-04-16T10:09:03.984Z,41.96
2019-04-16T10:11:37.286Z,42.13
2019-04-16T10:14:08.050Z,42.84
2019-04-16T10:16:40.236Z,42.36
2019-04-16T10:19:10.767Z,43.12
2019-04-16T10:21:41.526Z,41.96
2019-04-16T10:59:23.729Z,41.86
2019-04-16T11:35:27.617Z,41.71
2019-04-16T11:38:03.029Z,40.70
2019-04-16T11:40:35.876Z,41.29
2019-04-16T11:43:12.430Z,40.93
2019-04-16T11:45:53.824Z,40.78
2019-04-16T11:48:25.443Z,39.66
2019-04-16T11:51:00.952Z,41.03
2019-04-16T11:53:44.585Z,40.38
2019-04-16T11:56:15.851Z,41.88
2019-04-16T11:58:47.864Z,42.42
2019-04-16T12:01:46.672Z,41.58
2019-04-16T12:04:45.741Z,41.44
2019-04-16T12:42:12.135Z,42.77
2019-04-16T12:44:59.830Z,43.39
2019-04-16T12:47:55.444Z,44.01
2019-04-16T12:50:51.895Z,43.34
2019-04-16T12:53:56.356Z,43.88
2019-04-16T12:56:56.594Z,44.61
2019-04-16T13:32:07.957Z,48.72
2019-04-16T13:34:38.475Z,47.23
2019-04-16T13:37:09.301Z,47.83
2019-04-16T13:39:49.216Z,47.04
2019-04-16T13:42:19.749Z,45.68
2019-04-16T13:44:54.892Z,44.86
2019-04-16T13:47:26.985Z,45.39
2019-04-16T13:50:20.871Z,45.49
2019-04-16T13:53:01.483Z,45.30
2019-04-16T13:55:56.276Z,45.62
2019-04-16T14:41:11.942Z,43.48
2019-04-16T14:43:46.854Z,44.16
2019-04-16T14:46:17.512Z,43.78
2019-04-16T14:48:52.943Z,43.81
2019-04-16T14:58:00.266Z,42.55
2019-04-16T15:13:59.371Z,43.24
2019-04-16T15:16:38.472Z,42.78
2019-04-16T15:19:26.149Z,43.60
2019-04-16T15:22:14.614Z,43.60
2019-04-16T15:25:00.108Z,44.76
2019-04-16T15:27:55.998Z,44.70
2019-04-16T15:30:54.250Z,44.73
2019-04-16T15:33:35.643Z,45.42
2019-04-16T15:36:09.301Z,45.11
2019-04-16T15:38:58.984Z,45.08
2019-04-16T15:41:53.672Z,45.77
2019-04-16T15:44:48.579Z,45.81
2019-04-16T15:47:37.059Z,45.83
2019-04-16T15:50:36.788Z,45.75
2019-04-16T15:53:29.280Z,46.28
2019-04-16T15:56:06.409Z,46.97
2019-04-16T15:59:01.315Z,47.24
2019-04-16T16:02:02.498Z,47.28
2019-04-16T16:04:50.364Z,47.74
2019-04-16T16:07:24.260Z,48.62
2019-04-16T16:10:17.671Z,48.94
2019-04-16T16:12:50.836Z,49.59
2019-04-16T16:15:19.956Z,50.00
2019-04-16T16:17:50.156Z,51.07
2019-04-16T16:20:20.588Z,51.44
2019-04-16T16:22:50.828Z,51.97
2019-04-16T16:25:21.033Z,51.83
2019-04-16T16:27:51.129Z,51.66
2019-04-16T16:30:21.353Z,51.98
2019-04-16T16:32:51.419Z,52.00
2019-04-16T16:35:21.557Z,51.95
2019-04-16T16:37:51.744Z,52.28
2019-04-16T16:40:21.967Z,53.23
2019-04-16T16:42:52.278Z,53.81
2019-04-16T16:45:25.771Z,53.89
2019-04-16T16:47:56.012Z,53.08
2019-04-16T16:50:26.240Z,53.61
2019-04-16T16:53:09.726Z,53.61
2019-04-16T16:55:45.209Z,53.53
2019-04-16T16:58:33.038Z,53.72
2019-04-16T17:06:24.948Z,55.60
2019-04-16T17:08:55.122Z,55.59
2019-04-16T17:11:25.475Z,55.64
2019-04-16T17:13:58.003Z,55.67
2019-04-16T17:16:28.926Z,55.83
2019-04-16T17:18:59.046Z,57.10
2019-04-16T17:44:20.639Z,58.11
2019-04-16T17:47:30.591Z,58.72
2019-04-16T17:49:49.854Z,58.69
2019-04-16T18:09:33.833Z,60.70
2019-04-16T18:12:21.449Z,60.75
2019-04-16T18:15:08.928Z,61.17
2019-04-16T18:18:01.635Z,60.98
2019-04-16T18:20:58.481Z,61.21
2019-04-16T18:23:43.770Z,61.91
2019-04-16T18:26:31.207Z,62.38
2019-04-16T18:29:07.637Z,62.92
2019-04-16T18:31:56.038Z,63.72
2019-04-16T18:34:44.399Z,64.49
2019-04-16T18:37:31.885Z,65.33
2019-04-16T18:40:21.544Z,66.61
2019-04-16T18:43:19.622Z,67.21
2019-04-16T18:46:15.328Z,67.94
2019-04-16T18:48:46.852Z,67.94
2019-04-16T18:51:17.054Z,68.21
2019-04-16T18:53:47.316Z,67.71
2019-04-16T18:56:17.545Z,67.24
2019-04-16T18:58:47.714Z,68.01
2019-04-16T19:03:17.408Z,68.24
2019-04-16T19:05:47.675Z,68.00
2019-04-16T19:08:18.041Z,68.35
2019-04-16T19:10:48.239Z,68.82
2019-04-16T19:13:19.979Z,69.23
2019-04-16T19:15:53.408Z,69.48
2019-04-16T19:18:23.651Z,70.09
2019-04-16T19:20:53.973Z,70.98
2019-04-16T19:23:24.147Z,71.41
2019-04-16T19:25:55.358Z,71.97
2019-04-16T19:28:26.377Z,72.94
2019-04-16T19:30:56.575Z,73.12
2019-04-16T19:33:26.862Z,73.40
2019-04-16T19:35:56.967Z,73.90
2019-04-16T19:38:27.150Z,74.32
2019-04-16T19:40:57.528Z,74.94
2019-04-16T19:43:28.423Z,75.54
2019-04-16T19:45:58.892Z,76.13
2019-04-16T19:48:35.846Z,76.68
2019-04-16T19:51:01.394Z,76.99
2019-04-16T19:53:31.687Z,77.68
2019-04-16T19:56:01.931Z,77.67
2019-04-16T19:58:32.152Z,78.43
2019-04-16T20:01:02.529Z,78.90
2019-04-16T20:03:32.668Z,78.96
2019-04-16T20:06:02.952Z,79.13
2019-04-16T20:08:36.664Z,78.76
2019-04-16T20:11:05.288Z,79.20
2019-04-16T20:13:35.478Z,79.56
2019-04-16T20:16:05.827Z,79.70
2019-04-16T20:18:50.333Z,80.37
2019-04-16T20:21:07.944Z,80.40
2019-04-16T20:23:38.515Z,80.81
2019-04-16T20:26:08.788Z,80.51
2019-04-16T20:28:38.927Z,80.98
2019-04-16T20:31:09.108Z,80.54
2019-04-16T20:33:39.195Z,80.55
2019-04-16T20:36:09.408Z,80.26
2019-04-16T20:38:39.613Z,80.60
2019-04-16T20:41:09.929Z,80.79
2019-04-16T20:47:40.466Z,81.67
2019-04-16T20:53:58.807Z,82.02
2019-04-16T21:28:02.812Z,84.76
2019-04-16T21:30:32.927Z,85.50
2019-04-16T21:33:10.988Z,85.90
2019-04-16T21:35:43.704Z,86.28
2019-04-16T21:38:25.740Z,85.99
2019-04-16T21:40:57.241Z,86.15
2019-04-16T21:43:27.689Z,86.84
2019-04-16T21:45:57.785Z,87.32
2019-04-16T21:48:28.013Z,88.49
2019-04-16T21:50:58.306Z,88.54
2019-04-16T21:53:28.849Z,88.37
2019-04-16T21:55:59.236Z,88.37
2019-04-16T21:58:29.466Z,88.32
2019-04-16T22:01:14.468Z,88.30
2019-04-16T22:03:47.371Z,87.56
2019-04-16T22:06:20.216Z,87.87
2019-04-16T22:08:49.584Z,88.57
2019-04-16T22:11:19.727Z,88.71
2019-04-16T22:13:50.719Z,88.77
2019-04-16T22:16:21.731Z,88.96
2019-04-16T22:18:52.101Z,89.36
2019-04-16T22:21:22.344Z,89.86
2019-04-16T22:23:52.455Z,90.24
2019-04-16T22:26:22.579Z,90.62
2019-04-16T22:28:52.681Z,89.96
2019-04-16T22:31:23.837Z,90.36
2019-04-16T22:33:55.934Z,90.07
2019-04-16T22:36:26.394Z,91.03
2019-04-16T22:39:03.243Z,90.99
2019-04-16T22:41:41.581Z,90.92
2019-04-16T22:44:36.199Z,91.10
2019-04-16T22:47:12.654Z,91.36
2019-04-16T22:49:42.795Z,91.32
2019-04-16T22:52:13.314Z,91.63
2019-04-16T22:54:43.541Z,91.28
2019-04-16T22:57:15.105Z,91.31
2019-04-16T23:03:09.004Z,91.50
2019-04-16T23:05:39.384Z,91.56
2019-04-16T23:08:12.797Z,91.92
2019-04-16T23:10:41.462Z,92.32
2019-04-16T23:13:11.666Z,92.33
2019-04-16T23:15:42.511Z,92.08
2019-04-16T23:18:17.236Z,92.14
2019-04-16T23:20:44.807Z,91.85
2019-04-16T23:23:18.210Z,91.87
2019-04-16T23:25:46.787Z,91.30
2019-04-16T23:28:16.907Z,91.68
2019-04-16T23:30:47.975Z,91.76
2019-04-16T23:33:18.812Z,91.56
2019-04-16T23:35:49.072Z,92.00
2019-04-16T23:38:19.182Z,91.84
2019-04-16T23:40:49.276Z,91.77
2019-04-16T23:43:47.450Z,91.99
2019-04-16T23:46:45.452Z,92.41
2019-04-16T23:49:37.354Z,92.39
2019-04-16T23:52:13.351Z,93.05
2019-04-16T23:54:49.245Z,93.67
2019-04-16T23:57:25.489Z,94.03
